createdAt,value
2022-11-15T01:45:34.161Z,5.73
2022-11-15T01:48:35.742Z,5.79
2022-11-15T01:55:31.741Z,5.83
2022-11-15T01:58:36.720Z,5.73
2022-11-15T02:02:07.274Z,5.67
2022-11-15T02:12:01.311Z,5.52
2022-11-15T02:18:29.979Z,5.58
2022-11-15T02:23:04.312Z,5.33
2022-11-15T02:29:16.990Z,5.35
2022-11-15T02:32:59.720Z,5.51
2022-11-15T02:37:39.420Z,5.44
2022-11-15T02:39:41.406Z,5.54
2022-11-15T02:43:08.208Z,5.35
2022-11-15T02:46:49.036Z,5.46
2022-11-15T02:50:04.457Z,5.54
2022-11-15T02:53:15.448Z,5.37
2022-11-15T02:57:45.036Z,5.17
2022-11-15T03:03:19.446Z,5.41
2022-11-15T03:06:47.154Z,5.41
2022-11-15T03:10:38.116Z,5.17
2022-11-15T03:14:04.255Z,5.33
2022-11-15T03:17:30.790Z,5.24
2022-11-15T03:20:54.155Z,5.34
2022-11-15T03:27:24.690Z,4.90
2022-11-15T03:31:52.148Z,5.02
2022-11-15T03:43:42.099Z,4.76
2022-11-15T03:46:50.706Z,4.82
2022-11-15T03:50:00.465Z,4.78
2022-11-15T04:00:28.426Z,4.90
2022-11-15T04:03:23.059Z,4.88
2022-11-15T04:11:17.816Z,5.00
2022-11-15T04:13:15.872Z,5.03
2022-11-15T04:16:58.406Z,4.73
2022-11-15T04:19:42.862Z,4.76
2022-11-15T04:23:34.475Z,4.87
2022-11-15T04:26:47.610Z,5.08
2022-11-15T04:34:43.694Z,4.67
2022-11-15T04:37:00.200Z,4.96
2022-11-15T04:43:29.331Z,4.90
2022-11-15T04:46:34.320Z,5.05
2022-11-15T04:50:34.667Z,4.94
2022-11-15T04:56:34.490Z,4.68
2022-11-15T04:59:43.547Z,4.77
2022-11-15T05:03:19.513Z,4.83
2022-11-15T05:06:37.966Z,4.81
2022-11-15T05:11:09.594Z,4.93
2022-11-15T05:13:26.833Z,5.43
2022-11-15T05:16:40.547Z,5.28
2022-11-15T05:20:11.422Z,5.20
2022-11-15T05:26:25.903Z,5.19
2022-11-15T05:39:43.463Z,5.37
2022-11-15T05:46:16.788Z,5.23
2022-11-15T05:49:00.600Z,5.21
2022-11-15T05:55:40.083Z,5.34
2022-11-15T05:58:25.701Z,5.37
2022-11-15T06:01:11.136Z,5.33
2022-11-15T06:03:56.839Z,5.25
2022-11-15T06:06:42.418Z,5.24
2022-11-15T06:09:27.851Z,5.30
2022-11-15T06:12:13.282Z,5.08
2022-11-15T06:15:01.688Z,4.98
2022-11-15T06:17:47.077Z,5.09
2022-11-15T06:20:32.333Z,5.01
2022-11-15T06:23:17.839Z,4.99
2022-11-15T06:26:04.297Z,5.03
2022-11-15T06:28:49.698Z,4.90
2022-11-15T06:31:35.980Z,5.01
2022-11-15T06:34:21.412Z,4.88
2022-11-15T06:37:06.930Z,4.94
2022-11-15T06:39:52.460Z,5.03
2022-11-15T06:42:38.065Z,5.08
2022-11-15T06:45:23.603Z,5.28
2022-11-15T06:48:11.886Z,5.27
2022-11-15T06:50:59.813Z,5.51
2022-11-15T06:53:49.881Z,5.50
2022-11-15T06:56:38.738Z,5.55
2022-11-15T06:59:24.272Z,5.60
2022-11-15T07:02:22.054Z,5.70
2022-11-15T07:05:07.987Z,5.77
2022-11-15T07:07:55.242Z,6.12
2022-11-15T07:10:40.929Z,6.16
2022-11-15T07:13:27.815Z,6.31
2022-11-15T07:16:13.534Z,6.42
2022-11-15T07:18:58.898Z,6.62
2022-11-15T07:21:44.503Z,6.82
2022-11-15T07:24:30.013Z,7.27
2022-11-15T07:27:16.487Z,7.76
2022-11-15T07:30:02.541Z,7.96
2022-11-15T07:32:48.321Z,8.08
2022-11-15T07:35:42.815Z,8.48
2022-11-15T07:38:29.206Z,9.45
2022-11-15T07:41:14.672Z,9.99
2022-11-15T07:44:00.183Z,10.04
2022-11-15T07:46:45.800Z,10.86
2022-11-15T07:49:38.369Z,11.23
2022-11-15T07:52:24.089Z,11.32
2022-11-15T07:55:09.905Z,12.06
2022-11-15T07:58:04.818Z,12.18
2022-11-15T08:00:50.224Z,12.42
2022-11-15T08:03:36.980Z,12.98
2022-11-15T08:06:22.754Z,12.58
2022-11-15T08:09:08.025Z,13.42
2022-11-15T08:11:53.283Z,14.41
2022-11-15T08:14:39.527Z,14.04
2022-11-15T08:17:25.284Z,15.25
2022-11-15T08:20:11.374Z,15.67
2022-11-15T08:23:01.337Z,16.31
2022-11-15T08:25:46.761Z,16.99
2022-11-15T08:28:33.054Z,16.72
2022-11-15T08:31:19.455Z,17.64
2022-11-15T08:34:05.838Z,18.62
2022-11-15T08:36:51.503Z,18.40
2022-11-15T08:39:37.150Z,18.43
2022-11-15T08:42:22.554Z,18.46
2022-11-15T08:45:09.553Z,17.96
2022-11-15T08:47:55.175Z,19.58
2022-11-15T08:50:40.854Z,19.47
2022-11-15T08:53:26.358Z,18.11
2022-11-15T08:56:14.272Z,16.66
2022-11-15T08:58:59.874Z,14.98
2022-11-15T09:01:45.278Z,13.50
2022-11-15T09:04:30.679Z,13.27
2022-11-15T09:07:16.300Z,12.84
2022-11-15T09:10:01.642Z,13.26
2022-11-15T09:12:49.351Z,13.36
2022-11-15T09:15:35.026Z,12.49
2022-11-15T09:18:23.169Z,12.64
2022-11-15T09:21:09.716Z,12.94
2022-11-15T09:23:55.285Z,13.22
2022-11-15T09:26:41.849Z,13.66
2022-11-15T09:29:27.660Z,13.68
2022-11-15T09:32:13.155Z,14.78
2022-11-15T09:34:58.647Z,16.20
2022-11-15T09:37:44.412Z,17.39
2022-11-15T09:40:32.472Z,17.62
2022-11-15T09:43:33.414Z,19.43
2022-11-15T09:46:51.729Z,19.57
2022-11-15T09:49:37.039Z,20.90
2022-11-15T09:52:22.838Z,21.07
2022-11-15T09:55:22.080Z,20.45
2022-11-15T09:58:38.823Z,19.80
2022-11-15T10:01:46.058Z,20.80
2022-11-15T10:04:32.680Z,21.84
2022-11-15T10:07:26.222Z,22.59
2022-11-15T10:10:16.007Z,23.90
2022-11-15T10:13:01.429Z,23.99
2022-11-15T10:15:49.337Z,25.36
2022-11-15T10:18:57.217Z,25.01
2022-11-15T10:22:10.225Z,27.08
2022-11-15T10:25:31.858Z,25.63
2022-11-15T10:28:28.257Z,25.30
2022-11-15T10:31:26.375Z,25.06
2022-11-15T10:34:20.972Z,24.23
2022-11-15T10:37:06.904Z,25.21
2022-11-15T10:40:26.302Z,24.60
2022-11-15T10:43:11.774Z,25.61
2022-11-15T10:46:44.972Z,25.41
2022-11-15T10:49:30.685Z,25.00
2022-11-15T10:52:21.157Z,26.35
2022-11-15T10:55:25.144Z,25.04
2022-11-15T10:58:40.011Z,24.76
2022-11-15T11:01:30.584Z,24.28
2022-11-15T11:04:16.308Z,24.97
2022-11-15T11:07:01.563Z,24.16
2022-11-15T11:09:58.183Z,24.01
2022-11-15T11:12:43.480Z,23.26
2022-11-15T11:15:31.002Z,24.42
2022-11-15T11:18:26.278Z,25.03
2022-11-15T11:21:16.001Z,26.19
2022-11-15T11:24:26.404Z,25.37
2022-11-15T11:27:18.663Z,23.36
2022-11-15T11:30:22.729Z,21.11
2022-11-15T11:33:34.147Z,21.39
2022-11-15T11:36:36.476Z,20.92
2022-11-15T11:39:27.935Z,21.73
2022-11-15T11:42:30.643Z,22.18
2022-11-15T11:45:24.389Z,21.93
2022-11-15T11:48:21.835Z,21.74
2022-11-15T11:51:22.052Z,21.99
2022-11-15T11:54:20.370Z,22.21
2022-11-15T11:57:14.546Z,22.20
2022-11-15T12:00:11.821Z,20.93
2022-11-15T12:03:08.840Z,19.87
2022-11-15T12:06:05.759Z,20.63
2022-11-15T12:08:59.042Z,20.39
2022-11-15T12:11:44.373Z,20.57
2022-11-15T12:14:37.193Z,20.19
2022-11-15T12:17:32.943Z,19.37
2022-11-15T12:20:31.303Z,19.24
2022-11-15T12:23:21.948Z,18.64
2022-11-15T12:26:25.892Z,18.00
2022-11-15T12:29:24.584Z,17.73
2022-11-15T12:32:29.663Z,18.06
2022-11-15T12:35:42.867Z,18.36
2022-11-15T12:38:52.604Z,18.79
2022-11-15T12:41:43.330Z,18.83
2022-11-15T12:44:31.491Z,19.12
2022-11-15T12:47:25.257Z,19.42
2022-11-15T12:50:13.892Z,18.90
2022-11-15T12:53:23.995Z,18.15
2022-11-15T12:56:18.265Z,18.26
2022-11-15T12:59:07.651Z,17.90
2022-11-15T13:01:58.331Z,17.61
2022-11-15T13:04:43.927Z,17.10
2022-11-15T13:07:41.473Z,16.82
2022-11-15T13:10:28.207Z,16.94
2022-11-15T13:13:44.526Z,16.38
2022-11-15T13:16:30.058Z,16.16
2022-11-15T13:19:15.672Z,16.08
2022-11-15T13:22:28.298Z,16.19
2022-11-15T13:25:27.488Z,15.71
2022-11-15T13:28:33.456Z,15.66
2022-11-15T13:31:42.172Z,15.34
2022-11-15T13:34:51.141Z,15.28
2022-11-15T13:37:40.093Z,15.39
2022-11-15T13:40:33.388Z,15.35
2022-11-15T13:43:24.966Z,15.22
2022-11-15T13:46:10.585Z,15.01
2022-11-15T13:49:05.221Z,15.10
2022-11-15T13:51:54.518Z,14.91
2022-11-15T13:54:47.236Z,14.45
2022-11-15T13:57:43.792Z,14.62
2022-11-15T14:00:42.616Z,14.52
2022-11-15T14:03:33.911Z,14.35
2022-11-15T14:06:21.752Z,14.28
2022-11-15T14:09:10.180Z,14.25
2022-11-15T14:11:57.721Z,14.33
2022-11-15T14:14:47.369Z,14.11
2022-11-15T14:17:38.462Z,13.92
2022-11-15T14:20:26.512Z,13.76
2022-11-15T14:26:35.484Z,13.58
2022-11-15T14:29:23.497Z,13.56
2022-11-15T14:32:21.928Z,13.42
2022-11-15T14:35:15.972Z,13.11
2022-11-15T14:38:01.550Z,13.36
2022-11-15T14:40:47.228Z,13.21
2022-11-15T14:43:32.891Z,13.00
2022-11-15T14:46:19.082Z,13.05
2022-11-15T14:49:04.662Z,12.94
2022-11-15T14:51:50.353Z,13.04
2022-11-15T14:54:35.932Z,13.00
2022-11-15T14:57:21.806Z,12.79
2022-11-15T15:00:09.371Z,12.64
2022-11-15T15:02:55.330Z,12.59
2022-11-15T15:05:44.529Z,12.49
2022-11-15T15:08:30.416Z,12.30
2022-11-15T15:11:21.727Z,12.29
2022-11-15T15:14:08.955Z,12.20
2022-11-15T15:16:54.203Z,12.07
2022-11-15T15:19:39.900Z,12.07
2022-11-15T15:22:29.837Z,12.02
2022-11-15T15:25:32.769Z,12.01
2022-11-15T15:28:18.145Z,11.90
2022-11-15T15:31:03.460Z,11.71
2022-11-15T15:33:49.123Z,11.85
2022-11-15T15:36:34.948Z,11.70
2022-11-15T15:39:20.124Z,11.64
2022-11-15T15:42:05.891Z,11.59
2022-11-15T15:44:51.849Z,11.60
2022-11-15T15:47:38.428Z,11.47
2022-11-15T15:50:33.546Z,11.35
2022-11-15T15:53:19.299Z,11.50
2022-11-15T15:56:04.896Z,11.66
2022-11-15T15:58:50.482Z,11.48
2022-11-15T16:01:35.891Z,11.46
2022-11-15T16:04:21.240Z,11.49
2022-11-15T16:07:24.636Z,11.46
2022-11-15T16:10:32.888Z,11.35
2022-11-15T16:13:18.628Z,11.39
2022-11-15T16:16:04.144Z,11.34
2022-11-15T16:18:50.046Z,11.28
2022-11-15T16:24:51.807Z,11.10
2022-11-15T16:27:39.576Z,10.97
2022-11-15T16:30:25.202Z,11.33
2022-11-15T16:33:10.672Z,11.28
2022-11-15T16:35:56.055Z,11.15
2022-11-15T16:38:41.582Z,11.12
2022-11-15T16:41:27.375Z,11.26
2022-11-15T16:44:13.662Z,11.29
2022-11-15T16:46:59.285Z,11.34
2022-11-15T16:49:45.279Z,11.36
2022-11-15T16:52:30.644Z,11.36
2022-11-15T16:55:16.025Z,11.48
2022-11-15T16:58:02.342Z,11.36
2022-11-15T17:00:53.888Z,11.37
2022-11-15T17:03:39.346Z,11.46
2022-11-15T17:06:26.505Z,11.46
2022-11-15T17:09:18.100Z,11.52
2022-11-15T17:12:03.462Z,11.43
2022-11-15T17:14:48.770Z,11.50
2022-11-15T17:17:34.434Z,11.52
2022-11-15T17:20:22.587Z,11.61
2022-11-15T17:23:14.314Z,11.58
2022-11-15T17:26:23.846Z,11.63
2022-11-15T17:29:09.194Z,11.68
2022-11-15T17:31:54.640Z,11.61
2022-11-15T17:34:39.939Z,11.67
2022-11-15T17:37:25.617Z,11.57
2022-11-15T17:40:11.409Z,11.64
2022-11-15T17:42:57.377Z,11.59
2022-11-15T17:45:42.837Z,11.74
2022-11-15T17:48:30.456Z,11.77
2022-11-15T17:51:18.121Z,11.79
2022-11-15T17:54:03.828Z,11.84
2022-11-15T17:56:49.162Z,11.74
2022-11-15T17:59:36.762Z,11.81
2022-11-15T18:02:22.368Z,11.83
2022-11-15T18:05:07.833Z,11.73
2022-11-15T18:07:53.193Z,11.79
2022-11-15T18:10:38.713Z,11.71
2022-11-15T18:13:23.991Z,11.71
2022-11-15T18:16:12.539Z,11.72
2022-11-15T18:18:58.927Z,11.78
2022-11-15T18:21:58.911Z,11.70
2022-11-15T18:24:47.017Z,11.64
2022-11-15T18:27:33.229Z,11.62
2022-11-15T18:30:18.739Z,11.47
2022-11-15T18:33:04.157Z,11.75
2022-11-15T18:35:49.596Z,11.74
2022-11-15T18:38:35.683Z,11.57
2022-11-15T18:41:24.674Z,11.63
2022-11-15T18:44:10.521Z,11.68
2022-11-15T18:46:56.287Z,11.61
2022-11-15T18:49:41.892Z,11.61
2022-11-15T18:52:27.207Z,11.58
2022-11-15T18:55:14.330Z,11.60
2022-11-15T18:57:59.939Z,11.59
2022-11-15T19:00:45.297Z,11.67
2022-11-15T19:03:35.385Z,11.55
2022-11-15T19:06:31.783Z,11.63
2022-11-15T19:09:19.118Z,11.69
2022-11-15T19:12:04.662Z,11.73
2022-11-15T19:14:50.293Z,11.62
2022-11-15T19:17:35.490Z,11.66
2022-11-15T19:20:21.091Z,11.62
2022-11-15T19:23:06.658Z,11.61
2022-11-15T19:25:57.136Z,11.56
2022-11-15T19:28:43.568Z,11.62
2022-11-15T19:31:32.656Z,11.70
2022-11-15T19:34:18.203Z,11.74
2022-11-15T19:37:03.897Z,11.71
2022-11-15T19:39:49.295Z,11.60
2022-11-15T19:42:35.073Z,11.66
2022-11-15T19:45:20.453Z,11.57
2022-11-15T19:48:06.456Z,11.64
2022-11-15T19:50:52.616Z,11.36
2022-11-15T19:53:38.759Z,11.52
2022-11-15T19:56:25.052Z,11.59
2022-11-15T19:59:11.895Z,11.61
2022-11-15T20:01:57.404Z,11.52
2022-11-15T20:04:42.974Z,11.41
2022-11-15T20:07:28.449Z,11.42
2022-11-15T20:10:18.060Z,11.46
2022-11-15T20:13:05.228Z,11.43
2022-11-15T20:15:58.358Z,11.40
2022-11-15T20:18:44.331Z,11.36
2022-11-15T20:21:30.195Z,11.37
2022-11-15T20:24:15.943Z,11.25
2022-11-15T20:27:01.241Z,11.28
2022-11-15T20:29:48.720Z,11.18
2022-11-15T20:32:34.278Z,11.03
2022-11-15T20:35:20.390Z,11.08
2022-11-15T20:38:08.827Z,11.12
2022-11-15T20:40:59.846Z,11.08
2022-11-15T20:43:46.033Z,11.05
2022-11-15T20:46:31.428Z,11.07
2022-11-15T20:49:22.577Z,10.76
2022-11-15T20:52:07.864Z,10.88
2022-11-15T20:54:53.133Z,10.92
2022-11-15T20:57:38.826Z,10.92
2022-11-15T21:00:25.886Z,10.83
2022-11-15T21:03:12.646Z,10.91
2022-11-15T21:05:58.677Z,10.83
2022-11-15T21:09:03.356Z,10.94
2022-11-15T21:12:07.268Z,10.85
2022-11-15T21:14:53.172Z,10.93
2022-11-15T21:17:38.466Z,10.91
2022-11-15T21:20:25.303Z,10.92
2022-11-15T21:23:11.853Z,10.83
2022-11-15T21:25:57.516Z,10.70
2022-11-15T21:28:43.407Z,10.78
2022-11-15T21:31:29.422Z,10.74
2022-11-15T21:34:15.008Z,10.80
2022-11-15T21:37:00.714Z,10.73
2022-11-15T21:39:46.329Z,10.66
2022-11-15T21:42:31.754Z,10.72
2022-11-15T21:45:17.206Z,10.67
2022-11-15T21:48:02.719Z,10.58
2022-11-15T21:50:57.890Z,10.47
2022-11-15T21:53:43.481Z,10.69
2022-11-15T21:56:29.667Z,10.69
2022-11-15T21:59:15.306Z,10.58
2022-11-15T22:02:15.743Z,10.57
2022-11-15T22:05:01.111Z,10.49
2022-11-15T22:07:47.067Z,10.60
2022-11-15T22:10:32.799Z,10.46
2022-11-15T22:13:19.294Z,10.49
2022-11-15T22:16:05.326Z,10.33
2022-11-15T22:18:51.285Z,10.27
2022-11-15T22:21:38.019Z,10.37
2022-11-15T22:24:23.775Z,10.31
2022-11-15T22:27:09.837Z,10.33
2022-11-15T22:29:55.451Z,10.37
2022-11-15T22:32:41.015Z,10.29
2022-11-15T22:35:26.399Z,10.33
2022-11-15T22:38:12.285Z,10.17
2022-11-15T22:40:58.213Z,10.31
2022-11-15T22:43:43.979Z,10.15
2022-11-15T22:46:30.269Z,10.14
2022-11-15T22:49:15.679Z,9.95
2022-11-15T22:52:01.367Z,10.11
2022-11-15T22:54:46.911Z,10.01
2022-11-15T22:57:32.694Z,10.07
2022-11-15T23:00:18.805Z,10.00
2022-11-15T23:03:05.100Z,9.97
2022-11-15T23:05:50.900Z,9.85
2022-11-15T23:08:38.184Z,9.93
2022-11-15T23:11:43.014Z,9.88
2022-11-15T23:14:28.442Z,9.84
2022-11-15T23:17:14.261Z,9.70
2022-11-15T23:20:07.467Z,9.66
2022-11-15T23:23:02.097Z,9.73
2022-11-15T23:25:47.715Z,9.73
2022-11-15T23:28:34.838Z,9.77
2022-11-15T23:31:38.863Z,9.60
2022-11-15T23:34:24.752Z,9.39
2022-11-15T23:37:13.145Z,9.23
2022-11-15T23:39:58.696Z,9.57
2022-11-15T23:42:44.663Z,9.43
2022-11-15T23:45:30.244Z,9.31
2022-11-15T23:48:15.823Z,9.18
2022-11-15T23:51:01.187Z,9.16
2022-11-15T23:53:46.966Z,9.31
2022-11-15T23:56:33.189Z,8.98
2022-11-15T23:59:19.262Z,9.19
